地図

経路データ

SID SEASON NUMBER BASIN SUBBASIN NAME ISO_TIME NATURE LAT LON WMO_WIND WMO_PRES WMO_AGENCY TRACK_TYPE DIST2LAND LANDFALL IFLAG USA_AGENCY USA_ATCF_ID USA_LAT USA_LON USA_RECORD USA_STATUS USA_WIND USA_PRES USA_SSHS USA_R34_NE USA_R34_SE USA_R34_SW USA_R34_NW USA_R50_NE USA_R50_SE USA_R50_SW USA_R50_NW USA_R64_NE USA_R64_SE USA_R64_SW USA_R64_NW USA_POCI USA_ROCI USA_RMW USA_EYE TOKYO_LAT TOKYO_LON TOKYO_GRADE TOKYO_WIND TOKYO_PRES TOKYO_R50_DIR TOKYO_R50_LONG TOKYO_R50_SHORT TOKYO_R30_DIR TOKYO_R30_LONG TOKYO_R30_SHORT TOKYO_LAND CMA_LAT CMA_LON CMA_CAT CMA_WIND CMA_PRES HKO_LAT HKO_LON HKO_CAT HKO_WIND HKO_PRES NEWDELHI_LAT NEWDELHI_LON NEWDELHI_GRADE NEWDELHI_WIND NEWDELHI_PRES NEWDELHI_CI NEWDELHI_DP NEWDELHI_POCI REUNION_LAT REUNION_LON REUNION_TYPE REUNION_WIND REUNION_PRES REUNION_TNUM REUNION_CI REUNION_RMW REUNION_R34_NE REUNION_R34_SE REUNION_R34_SW REUNION_R34_NW REUNION_R50_NE REUNION_R50_SE REUNION_R50_SW REUNION_R50_NW REUNION_R64_NE REUNION_R64_SE REUNION_R64_SW REUNION_R64_NW BOM_LAT BOM_LON BOM_TYPE BOM_WIND BOM_PRES BOM_TNUM BOM_CI BOM_RMW BOM_R34_NE BOM_R34_SE BOM_R34_SW BOM_R34_NW BOM_R50_NE BOM_R50_SE BOM_R50_SW BOM_R50_NW BOM_R64_NE BOM_R64_SE BOM_R64_SW BOM_R64_NW BOM_ROCI BOM_POCI BOM_EYE BOM_POS_METHOD BOM_PRES_METHOD NADI_LAT NADI_LON NADI_CAT NADI_WIND NADI_PRES WELLINGTON_LAT WELLINGTON_LON WELLINGTON_WIND WELLINGTON_PRES DS824_LAT DS824_LON DS824_STAGE DS824_WIND DS824_PRES TD9636_LAT TD9636_LON TD9636_STAGE TD9636_WIND TD9636_PRES TD9635_LAT TD9635_LON TD9635_WIND TD9635_PRES TD9635_ROCI NEUMANN_LAT NEUMANN_LON NEUMANN_CLASS NEUMANN_WIND NEUMANN_PRES MLC_LAT MLC_LON MLC_CLASS MLC_WIND MLC_PRES USA_GUST BOM_GUST BOM_GUST_PER REUNION_GUST REUNION_GUST_PER USA_SEAHGT USA_SEARAD_NE USA_SEARAD_SE USA_SEARAD_SW USA_SEARAD_NW STORM_SPEED STORM_DIR
1873275N16340 1873 19 NA NA NOT_NAMED 1873-10-01 12:00:00 TS 15.7000 -20.2000 main 310 310 _____________O -1 15.7000 -20.2000 TS 35 21 273
1873275N16340 1873 19 NA NA NOT_NAMED 1873-10-01 15:00:00 TS 15.7611 -21.2998 main 426 426 _____________P -1 15.7611 -21.2998 TS 35 21 273
1873275N16340 1873 19 NA NA NOT_NAMED 1873-10-01 18:00:00 TS 15.8000 -22.4000 main 540 540 _____________O -1 15.8000 -22.4000 TS 35 21 271
1873275N16340 1873 19 NA NA NOT_NAMED 1873-10-01 21:00:00 TS 15.8069 -23.5001 main 655 655 _____________P -1 15.8069 -23.5001 TS 37 21 270
1873275N16340 1873 19 NA NA NOT_NAMED 1873-10-02 00:00:00 TS 15.8000 -24.6000 main 771 771 _____________O -1 15.8000 -24.6000 TS 40 21 270
1873275N16340 1873 19 NA NA NOT_NAMED 1873-10-02 03:00:00 TS 15.7994 -25.7000 main 888 888 _____________P -1 15.7994 -25.7000 TS 42 21 270
1873275N16340 1873 19 NA NA NOT_NAMED 1873-10-02 06:00:00 TS 15.8000 -26.8000 main 1005 1005 _____________O -1 15.8000 -26.8000 TS 45 21 270
1873275N16340 1873 19 NA NA NOT_NAMED 1873-10-02 09:00:00 TS 15.7847 -27.9152 main 1122 1122 _____________P -1 15.7847 -27.9152 TS 47 21 270
1873275N16340 1873 19 NA NA NOT_NAMED 1873-10-02 12:00:00 TS 15.8000 -29.0000 main 1240 1240 _____________O -1 15.8000 -29.0000 TS 50 20 273
1873275N16340 1873 19 NA NA NOT_NAMED 1873-10-02 15:00:00 TS 15.8843 -30.0149 main 1347 1347 _____________P -1 15.8843 -30.0149 TS 52 19 276
1873275N16340 1873 19 NA NA NOT_NAMED 1873-10-02 18:00:00 TS 16.0000 -31.0000 main 1455 1455 _____________O -1 16.0000 -31.0000 TS 55 19 276
1873275N16340 1873 19 NA NA NOT_NAMED 1873-10-02 21:00:00 TS 16.0995 -32.0001 main 1562 1562 _____________P -1 16.0995 -32.0001 TS 57 19 276
1873275N16340 1873 19 NA NA NOT_NAMED 1873-10-03 00:00:00 TS 16.2000 -33.0000 main 1669 1669 _____________O -1 16.2000 -33.0000 TS 60 19 276
1873275N16340 1873 19 NA NA NOT_NAMED 1873-10-03 03:00:00 TS 16.3070 -34.0000 main 1777 1777 _____________P -1 16.3070 -34.0000 TS 62 19 276
1873275N16340 1873 19 NA NA NOT_NAMED 1873-10-03 06:00:00 TS 16.4000 -35.0000 main 1884 1884 _____________O -1 16.4000 -35.0000 HU 65 19 274
1873275N16340 1873 19 NA NA NOT_NAMED 1873-10-03 09:00:00 TS 16.4420 -36.0004 main 1990 1990 _____________P -1 16.4420 -36.0004 HU 65 19 273
1873275N16340 1873 19 NA NA NOT_NAMED 1873-10-03 12:00:00 TS 16.5000 -37.0000 main 2075 2001 _____________O -1 16.5000 -37.0000 HU 65 19 276
1873275N16340 1873 19 NA NA NOT_NAMED 1873-10-03 15:00:00 TS 16.6421 -38.0073 main 2001 1947 _____________P -1 16.6421 -38.0073 HU 65 19 279
1873275N16340 1873 19 NA NA NOT_NAMED 1873-10-03 18:00:00 TS 16.8000 -39.0000 main 1939 1881 _____________O -1 16.8000 -39.0000 HU 65 19 278
1873275N16340 1873 19 NA NA NOT_NAMED 1873-10-03 21:00:00 TS 16.8995 -39.9578 main 1874 1826 _____________P -1 16.8995 -39.9578 HU 65 18 276
1873275N16340 1873 19 NA NA NOT_NAMED 1873-10-04 00:00:00 TS 17.0000 -40.9000 main 1819 1768 _____________O -1 17.0000 -40.9000 HU 65 18 278
1873275N16340 1873 19 NA NA NOT_NAMED 1873-10-04 03:00:00 TS 17.1494 -41.8424 main 1768 1731 _____________P -1 17.1494 -41.8424 HU 65 18 279
1873275N16340 1873 19 NA NA NOT_NAMED 1873-10-04 06:00:00 TS 17.3000 -42.8000 main 1724 1666 _____________O -1 17.3000 -42.8000 HU 65 20 276
1873275N16340 1873 19 NA NA NOT_NAMED 1873-10-04 09:00:00 TS 17.3632 -43.8904 main 1662 1618 _____________P -1 17.3632 -43.8904 HU 65 19 276
1873275N16340 1873 19 NA NA NOT_NAMED 1873-10-04 12:00:00 TS 17.5000 -44.8000 main 1618 1612 _____________O -1 17.5000 -44.8000 HU 65 14 291
1873275N16340 1873 19 NA NA NOT_NAMED 1873-10-04 15:00:00 TS 17.8616 -45.2476 main 1634 1628 _____________P -1 17.8616 -45.2476 HU 65 10 320
1873275N16340 1873 19 NA NA NOT_NAMED 1873-10-04 18:00:00 TS 18.3000 -45.5000 main 1657 1657 _____________O -1 18.3000 -45.5000 HU 65 10 324
1873275N16340 1873 19 NA NA NOT_NAMED 1873-10-04 21:00:00 TS 18.6499 -45.8502 main 1667 1667 _____________P -1 18.6499 -45.8502 HU 65 10 317
1873275N16340 1873 19 NA NA NOT_NAMED 1873-10-05 00:00:00 TS 19.0000 -46.2000 main 1692 1692 _____________O -1 19.0000 -46.2000 HU 65 10 318
1873275N16340 1873 19 NA NA NOT_NAMED 1873-10-05 03:00:00 TS 19.4000 -46.5575 main 1715 1715 _____________P -1 19.4000 -46.5575 HU 65 10 320
1873275N16340 1873 19 NA NA NOT_NAMED 1873-10-05 06:00:00 TS 19.8000 -46.9000 main 1744 1744 _____________O -1 19.8000 -46.9000 HU 65 10 318
1873275N16340 1873 19 NA NA NOT_NAMED 1873-10-05 09:00:00 TS 20.1575 -47.2897 main 1766 1761 _____________P -1 20.1575 -47.2897 HU 65 9 321
1873275N16340 1873 19 NA NA NOT_NAMED 1873-10-05 12:00:00 TS 20.5000 -47.5000 main 1787 1787 _____________O -1 20.5000 -47.5000 HU 65 7 357
1873275N16340 1873 19 NA NA NOT_NAMED 1873-10-05 15:00:00 TS 20.8576 -47.3255 main 1836 1836 _____________P -1 20.8576 -47.3255 HU 65 8 34
1873275N16340 1873 19 NA NA NOT_NAMED 1873-10-05 18:00:00 TS 21.2000 -47.0000 main 1880 1880 _____________O -1 21.2000 -47.0000 HU 65 8 36
1873275N16340 1873 19 NA NA NOT_NAMED 1873-10-05 21:00:00 TS 21.5073 -46.8147 main 1919 1919 _____________P -1 21.5073 -46.8147 HU 65 7 32
1873275N16340 1873 19 NA NA NOT_NAMED 1873-10-06 00:00:00 TS 21.8000 -46.6000 main 1958 1958 _____________O -1 21.8000 -46.6000 HU 65 8 40
1873275N16340 1873 19 NA NA NOT_NAMED 1873-10-06 03:00:00 TS 22.1000 -46.2725 main 2002 2002 _____________P -1 22.1000 -46.2725 HU 65 9 47
1873275N16340 1873 19 NA NA NOT_NAMED 1873-10-06 06:00:00 TS 22.4000 -45.9000 main 2050 2050 _____________O -1 22.4000 -45.9000 HU 65 9 47
1873275N16340 1873 19 NA NA NOT_NAMED 1873-10-06 09:00:00 TS 22.6845 -45.6018 main 2094 2094 _____________P -1 22.6845 -45.6018 HU 65 9 47
1873275N16340 1873 19 NA NA NOT_NAMED 1873-10-06 12:00:00 TS 23.0000 -45.2000 main 2142 2142 _____________O -1 23.0000 -45.2000 HU 65 12 54
1873275N16340 1873 19 NA NA NOT_NAMED 1873-10-06 15:00:00 TS 23.3928 -44.5528 main 2208 2208 _____________P -1 23.3928 -44.5528 HU 65 15 58
1873275N16340 1873 19 NA NA NOT_NAMED 1873-10-06 18:00:00 TS 23.8000 -43.8000 main 2284 2284 _____________O -1 23.8000 -43.8000 HU 65 15 60
1873275N16340 1873 19 NA NA NOT_NAMED 1873-10-06 21:00:00 TS 24.1497 -43.0994 main 2346 2346 _____________P -1 24.1497 -43.0994 HU 65 15 61
1873275N16340 1873 19 NA NA NOT_NAMED 1873-10-07 00:00:00 TS 24.5000 -42.4000 main 2419 2419 _____________O -1 24.5000 -42.4000 HU 65 15 60
1873275N16340 1873 19 NA NA NOT_NAMED 1873-10-07 03:00:00 TS 24.8997 -41.6998 main 2493 2418 _____________P -1 24.8997 -41.6998 HU 62 15 58
1873275N16340 1873 19 NA NA NOT_NAMED 1873-10-07 06:00:00 TS 25.3000 -41.0000 main 2418 2342 _____________O -1 25.3000 -41.0000 TS 60 15 60
1873275N16340 1873 19 NA NA NOT_NAMED 1873-10-07 09:00:00 TS 25.6349 -40.2842 main 2342 2264 _____________P -1 25.6349 -40.2842 TS 57 14 61
1873275N16340 1873 19 NA NA NOT_NAMED 1873-10-07 12:00:00 TS 26.0000 -39.6000 main 2264 2197 _____________O -1 26.0000 -39.6000 TS 55 14 54
1873275N16340 1873 19 NA NA NOT_NAMED 1873-10-07 15:00:00 TS 26.4771 -38.9773 main 2195 2127 _____________P -1 26.4771 -38.9773 TS 52 15 47
1873275N16340 1873 19 NA NA NOT_NAMED 1873-10-07 18:00:00 TS 27.0000 -38.4000 main 2127 2070 _____________O -1 27.0000 -38.4000 TS 50 14 45
1873275N16340 1873 19 NA NA NOT_NAMED 1873-10-07 21:00:00 TS 27.4996 -37.8493 main 2060 2005 _____________P -1 27.4996 -37.8493 TS 47 14 44
1873275N16340 1873 19 NA NA NOT_NAMED 1873-10-08 00:00:00 TS 28.0000 -37.3000 main 2005 1942 _____________O -1 28.0000 -37.3000 TS 45 14 45
1873275N16340 1873 19 NA NA NOT_NAMED 1873-10-08 03:00:00 TS 28.4999 -36.6996 main 1942 1880 _____________P -1 28.4999 -36.6996 TS 42 15 47
1873275N16340 1873 19 NA NA NOT_NAMED 1873-10-08 06:00:00 TS 29.0000 -36.1000 main 1880 1830 _____________O -1 29.0000 -36.1000 TS 40 14 45
1873275N16340 1873 19 NA NA NOT_NAMED 1873-10-08 09:00:00 TS 29.5003 -35.5384 main 1821 1773 _____________P -1 29.5003 -35.5384 TS 37 14 44
1873275N16340 1873 19 NA NA NOT_NAMED 1873-10-08 12:00:00 TS 30.0000 -35.0000 main 1773 _____________O -1 30.0000 -35.0000 TS 35 14 43

IBTrACS Databaseについて

本データベースは、米国NOAAが公開する1842年以降の世界の熱帯低気圧のベストトラックデータアーカイブInternational Best Track Archive for Climate Stewardship (IBTrACS)を、ウェブで閲覧しやすい形式に変換したものです。

最終更新日:2021-12-01